Monday, December 17, 2018, 5:04 AM EST
Back to Local

KCBE, Cumberland, Greater Cumberland Regional Airport

Location: Wiley Ford, MD, United States Lat: 39.615
Local Time: 5:04 AM EST (10:04 GMT) Lon: -78.761
Time Zone: US/Eastern Elev: 774 ft

Show me the last for .
Show Coded

Time T Td Feel RH Dir Speed Gust Alt SLP Vis Weather Sky Remarks
2018-12-17 04:40 42 30 34 63 290° 15 - 29.95 - 10 CLR None
2018-12-17 04:20 42 30 34 61 270° 9 20 29.95 - 10 CLR None
2018-12-17 04:00 43 31 33 62 290° 15 25 29.95 - 10 CLR None
2018-12-17 03:40 43 31 34 62 290° 13 22 29.96 - 10 CLR None
2018-12-17 03:20 43 31 34 63 290° 14 22 29.96 - 10 CLR None
2018-12-17 03:00 44 33 39 65 290° 9 - 29.97 - 10 CLR None
2018-12-17 02:40 44 33 35 64 320° 10 26 29.97 - 10 CLR None
2018-12-17 02:20 45 33 35 63 290° 18 25 29.98 - 10 CLR None
2018-12-17 02:00 44 34 39 67 300° 8 - 29.97 - 10 SCT032 None
2018-12-17 01:40 44 34 37 66 320° 12 16 29.96 - 10 SCT032 None
2018-12-17 01:20 45 34 35 65 300° 13 28 29.96 - 10 SCT032 None
2018-12-17 01:00 45 34 36 65 300° 13 23 29.96 - 10 CLR None
2018-12-17 00:40 44 35 38 68 310° 13 - 29.96 - 10 CLR None
2018-12-17 00:20 45 35 36 67 300° 18 28 29.96 - 10 SCT029 SCT035 None
2018-12-17 00:00 45 37 36 71 300° 20 24 29.97 - 10 BKN027 BKN035 None
2018-12-16 23:40 45 37 38 74 310° 13 17 29.97 - 10 OVC025 None
2018-12-16 23:20 45 37 40 74 320° 9 - 29.98 - 10 OVC025 None
2018-12-16 23:00 45 37 38 72 310° 13 20 29.98 - 10 OVC025 None
2018-12-16 22:40 45 37 37 74 330° 7 18 29.98 - 10 OVC025 None
2018-12-16 22:20 45 37 41 74 260° 7 - 29.99 - 10 OVC025 None
2018-12-16 22:00 45 37 39 73 310° 10 - 30.00 - 10 OVC025 None
2018-12-16 21:40 44 37 39 74 310° 10 - 30.00 - 10 OVC025 None
2018-12-16 21:20 44 36 39 73 320° 9 - 30.00 - 10 OVC025 None
2018-12-16 21:00 44 36 37 74 320° 14 - 30.00 - 10 OVC023 None
2018-12-16 20:40 44 36 40 74 330° 7 - 30.00 - 10 OVC023 None
2018-12-16 20:20 43 37 39 77 350° 7 - 30.00 - 10 OVC023 None
2018-12-16 20:00 43 37 38 77 350° 8 - 30.00 - 10 OVC021 None
2018-12-16 19:40 43 36 34 75 330° 10 20 30.00 - 10 OVC021 None
2018-12-16 19:20 43 37 35 77 340° 12 18 30.00 - 10 OVC021 None
2018-12-16 19:00 42 38 35 87 350° 12 - 30.00 - 10 OVC021 None
2018-12-16 18:40 41 39 39 92 70° 3 - 29.99 - 10 SCT011 SCT015 OVC023 None
2018-12-16 18:20 41 39 39 90 30° 3 - 29.99 - 10 SCT011 SCT016 OVC025 None
2018-12-16 18:00 42 38 - 87 - Calm - 29.98 - 10 SCT013 OVC023 None
2018-12-16 17:40 42 39 - 89 - Calm - 29.96 - 10 BKN013 BKN018 OVC027 None
2018-12-16 17:20 42 39 - 91 - Calm - 29.96 - 10 BKN013 OVC020 None
2018-12-16 17:00 42 39 - 88 - Calm - 29.96 - 10 SCT015 OVC024 None
2018-12-16 16:40 42 38 - 87 - Calm - 29.96 - 10 BKN015 OVC026 None
2018-12-16 16:20 42 38 - 86 - Calm - 29.95 - 10 OVC015 None
2018-12-16 16:00 42 39 39 88 50° 5 - 29.94 - 10 BKN017 OVC026 None
2018-12-16 15:40 42 39 39 88 50° 5 - 29.94 - 10 BKN015 OVC026 None
2018-12-16 15:20 42 39 39 88 70° 5 - 29.94 - 10 BKN013 OVC020 None
2018-12-16 15:00 42 39 41 87 90° 3 - 29.93 - 10 SCT013 OVC023 None
2018-12-16 14:40 42 39 40 87 320° 3 - 29.93 - 10 SCT011 OVC020 None
2018-12-16 14:20 42 39 40 90 30° 3 - 29.93 - 10 BKN011 BKN017 OVC022 None
2018-12-16 14:00 42 39 40 90 50° 3 - 29.93 - 10 BKN008 BKN015 OVC022 None
2018-12-16 13:40 42 39 39 90 10° 5 - 29.92 - 7 BR BKN008 BKN015 OVC022 None
2018-12-16 13:20 41 39 38 91 30° 6 - 29.92 - 10 SCT006 OVC020 None
2018-12-16 13:00 41 39 37 91 20° 7 - 29.92 - 5 BR SCT008 SCT011 OVC020 None
2018-12-16 12:40 41 40 37 94 20° 6 - 29.93 - 1 -DZ BR BKN009 OVC017 None
2018-12-16 12:20 42 39 39 90 20° 5 - 29.93 - 10 SCT009 BKN017 OVC023 None
2018-12-16 12:00 41 39 38 90 30° 6 - 29.94 - 7 BR OVC013 None
2018-12-16 11:40 42 39 38 89 10° 6 - 29.94 - 7 OVC011 None
2018-12-16 11:20 42 38 39 88 30° 5 - 29.95 - 10 OVC013 None
2018-12-16 11:00 42 39 39 88 30° 5 - 29.96 - 10 OVC013 None
2018-12-16 10:40 42 38 39 88 30° 5 - 29.97 - 10 OVC013 None
2018-12-16 10:20 41 39 38 90 20° 5 - 29.97 - 10 OVC013 None
2018-12-16 10:00 41 39 38 90 10° 6 - 29.98 - 10 OVC015 None
2018-12-16 09:40 41 39 38 90 360° 5 - 29.98 - 10 OVC015 None
2018-12-16 09:20 41 39 38 91 360° 5 - 29.98 - 10 OVC015 None
2018-12-16 09:00 41 39 38 93 360° 5 - 29.98 - 10 OVC015 None
2018-12-16 08:40 41 39 36 93 20° 7 - 29.97 - 10 OVC015 None
2018-12-16 08:20 41 39 37 92 20° 7 - 29.97 - 10 OVC015 None
2018-12-16 08:00 41 39 37 91 20° 7 - 29.97 - 7 OVC015 None
2018-12-16 07:40 42 39 37 91 20° 7 - 29.97 - 10 OVC015 None
2018-12-16 07:20 42 39 39 91 20° 5 - 29.97 - 10 OVC015 None
2018-12-16 07:00 42 40 39 92 20° 5 - 29.97 - 10 OVC015 None
2018-12-16 06:40 42 40 38 93 10° 6 - 29.97 - 10 OVC015 None
2018-12-16 06:20 42 40 38 93 20° 6 - 29.97 - 10 OVC015 None
2018-12-16 06:00 42 40 37 93 10° 7 - 29.97 - 7 BR OVC015 None
2018-12-16 05:40 42 41 37 95 360° 7 - 29.96 - 5 -DZ BR OVC015 None
2018-12-16 05:20 42 41 37 96 360° 7 - 29.97 - 3 -DZ BR SCT010 OVC015 None

Support USWX by starting your Amazon purchase here.